sensor_id;sensor_type;location;lat;lon;timestamp;pressure;altitude;pressure_sealevel;temperature
74043;BMP280;62384;53.600;10.040;2023-03-01T00:01:23;74885.22;;;2.11
74043;BMP280;62384;53.600;10.040;2023-03-01T00:03:49;75224.13;;;2.21
74043;BMP280;62384;53.600;10.040;2023-03-01T00:06:14;75158.94;;;2.26
74043;BMP280;62384;53.600;10.040;2023-03-01T00:08:40;75284.50;;;2.21
74043;BMP280;62384;53.600;10.040;2023-03-01T00:11:12;75170.94;;;2.25
74043;BMP280;62384;53.600;10.040;2023-03-01T00:13:38;75042.00;;;2.34
74043;BMP280;62384;53.600;10.040;2023-03-01T00:16:06;75144.91;;;2.27
74043;BMP280;62384;53.600;10.040;2023-03-01T00:18:32;75288.00;;;2.42
74043;BMP280;62384;53.600;10.040;2023-03-01T00:20:57;75234.03;;;2.32
74043;BMP280;62384;53.600;10.040;2023-03-01T00:23:23;75288.81;;;2.34
74043;BMP280;62384;53.600;10.040;2023-03-01T00:25:49;75295.09;;;2.16
74043;BMP280;62384;53.600;10.040;2023-03-01T00:28:16;75136.38;;;1.96
74043;BMP280;62384;53.600;10.040;2023-03-01T00:30:41;75142.94;;;1.81
74043;BMP280;62384;53.600;10.040;2023-03-01T00:33:07;75143.09;;;2.19
74043;BMP280;62384;53.600;10.040;2023-03-01T00:35:33;75154.75;;;2.08
74043;BMP280;62384;53.600;10.040;2023-03-01T00:37:58;75102.25;;;2.08
74043;BMP280;62384;53.600;10.040;2023-03-01T00:40:25;75101.91;;;2.22
74043;BMP280;62384;53.600;10.040;2023-03-01T00:42:50;75157.81;;;2.25
74043;BMP280;62384;53.600;10.040;2023-03-01T00:45:16;75272.84;;;2.31
74043;BMP280;62384;53.600;10.040;2023-03-01T00:47:41;75145.47;;;2.28
74043;BMP280;62384;53.600;10.040;2023-03-01T00:50:07;75084.13;;;2.10
74043;BMP280;62384;53.600;10.040;2023-03-01T00:52:33;75011.19;;;2.11
74043;BMP280;62384;53.600;10.040;2023-03-01T00:54:58;74963.97;;;2.11
74043;BMP280;62384;53.600;10.040;2023-03-01T00:57:23;75087.41;;;2.18
74043;BMP280;62384;53.600;10.040;2023-03-01T00:59:49;74960.28;;;2.17
74043;BMP280;62384;53.600;10.040;2023-03-01T01:02:14;74976.94;;;2.15
74043;BMP280;62384;53.600;10.040;2023-03-01T01:04:39;74937.72;;;2.11
74043;BMP280;62384;53.600;10.040;2023-03-01T01:07:05;75000.78;;;2.18
74043;BMP280;62384;53.600;10.040;2023-03-01T01:09:30;74872.44;;;2.09
74043;BMP280;62384;53.600;10.040;2023-03-01T01:11:56;74899.81;;;2.10
74043;BMP280;62384;53.600;10.040;2023-03-01T01:14:21;74889.94;;;1.99
74043;BMP280;62384;53.600;10.040;2023-03-01T01:16:47;74875.34;;;2.00
74043;BMP280;62384;53.600;10.040;2023-03-01T01:19:12;74541.25;;;1.69
74043;BMP280;62384;53.600;10.040;2023-03-01T01:21:38;74851.03;;;2.04
74043;BMP280;62384;53.600;10.040;2023-03-01T01:24:04;74836.84;;;1.73
74043;BMP280;62384;53.600;10.040;2023-03-01T01:26:32;74791.22;;;1.79
74043;BMP280;62384;53.600;10.040;2023-03-01T01:28:59;74816.78;;;2.08
74043;BMP280;62384;53.600;10.040;2023-03-01T01:31:25;74925.44;;;2.21
74043;BMP280;62384;53.600;10.040;2023-03-01T01:33:54;74931.97;;;2.18
74043;BMP280;62384;53.600;10.040;2023-03-01T01:36:19;74925.50;;;2.09
74043;BMP280;62384;53.600;10.040;2023-03-01T01:38:46;74908.47;;;1.94
74043;BMP280;62384;53.600;10.040;2023-03-01T01:41:12;74826.06;;;1.63
74043;BMP280;62384;53.600;10.040;2023-03-01T01:43:41;74779.84;;;1.87
74043;BMP280;62384;53.600;10.040;2023-03-01T01:46:21;74583.28;;;1.83
74043;BMP280;62384;53.600;10.040;2023-03-01T01:49:00;74630.41;;;1.69
74043;BMP280;62384;53.600;10.040;2023-03-01T01:51:31;74519.75;;;1.49
74043;BMP280;62384;53.600;10.040;2023-03-01T01:54:07;74554.75;;;1.74
74043;BMP280;62384;53.600;10.040;2023-03-01T01:56:33;74574.28;;;1.82
74043;BMP280;62384;53.600;10.040;2023-03-01T01:58:58;74739.47;;;1.75
74043;BMP280;62384;53.600;10.040;2023-03-01T02:01:23;74787.78;;;1.94
74043;BMP280;62384;53.600;10.040;2023-03-01T02:03:50;74869.59;;;1.88
74043;BMP280;62384;53.600;10.040;2023-03-01T02:06:20;74769.81;;;1.99
74043;BMP280;62384;53.600;10.040;2023-03-01T02:08:48;75019.88;;;2.02
74043;BMP280;62384;53.600;10.040;2023-03-01T02:11:14;75145.06;;;1.99
74043;BMP280;62384;53.600;10.040;2023-03-01T02:13:40;75014.56;;;1.95
74043;BMP280;62384;53.600;10.040;2023-03-01T02:16:11;74791.38;;;2.00
74043;BMP280;62384;53.600;10.040;2023-03-01T02:18:39;74531.84;;;2.02
74043;BMP280;62384;53.600;10.040;2023-03-01T02:23:42;74849.84;;;2.14
74043;BMP280;62384;53.600;10.040;2023-03-01T02:26:18;74901.81;;;2.02
74043;BMP280;62384;53.600;10.040;2023-03-01T02:28:45;74840.69;;;2.18
74043;BMP280;62384;53.600;10.040;2023-03-01T02:31:15;74871.59;;;2.18
74043;BMP280;62384;53.600;10.040;2023-03-01T02:34:00;74804.91;;;2.24
74043;BMP280;62384;53.600;10.040;2023-03-01T02:36:29;74914.38;;;2.21
74043;BMP280;62384;53.600;10.040;2023-03-01T02:38:58;74920.81;;;2.10
74043;BMP280;62384;53.600;10.040;2023-03-01T02:41:26;74903.31;;;2.01
74043;BMP280;62384;53.600;10.040;2023-03-01T02:43:52;74769.19;;;2.10
74043;BMP280;62384;53.600;10.040;2023-03-01T02:46:21;74751.31;;;2.04
74043;BMP280;62384;53.600;10.040;2023-03-01T02:48:55;74648.38;;;1.96
74043;BMP280;62384;53.600;10.040;2023-03-01T02:54:31;74599.28;;;1.99
74043;BMP280;62384;53.600;10.040;2023-03-01T02:56:59;74587.44;;;1.89
74043;BMP280;62384;53.600;10.040;2023-03-01T02:59:29;74665.19;;;1.90
74043;BMP280;62384;53.600;10.040;2023-03-01T03:01:56;74639.34;;;1.63
74043;BMP280;62384;53.600;10.040;2023-03-01T03:04:21;74631.25;;;1.60
74043;BMP280;62384;53.600;10.040;2023-03-01T03:06:48;74653.50;;;1.56
74043;BMP280;62384;53.600;10.040;2023-03-01T03:09:15;74731.19;;;1.51
74043;BMP280;62384;53.600;10.040;2023-03-01T03:11:41;74773.34;;;1.53
74043;BMP280;62384;53.600;10.040;2023-03-01T03:14:09;74830.19;;;1.62
74043;BMP280;62384;53.600;10.040;2023-03-01T03:16:47;74930.97;;;1.63
74043;BMP280;62384;53.600;10.040;2023-03-01T03:19:13;74775.25;;;1.57
74043;BMP280;62384;53.600;10.040;2023-03-01T03:21:38;75068.63;;;1.90
74043;BMP280;62384;53.600;10.040;2023-03-01T03:24:04;75151.81;;;1.98
74043;BMP280;62384;53.600;10.040;2023-03-01T03:26:29;74968.72;;;1.87
74043;BMP280;62384;53.600;10.040;2023-03-01T03:28:55;74893.59;;;2.04
74043;BMP280;62384;53.600;10.040;2023-03-01T03:31:20;75443.19;;;1.94
74043;BMP280;62384;53.600;10.040;2023-03-01T03:33:45;75562.66;;;1.97
74043;BMP280;62384;53.600;10.040;2023-03-01T03:36:16;76098.09;;;2.23
74043;BMP280;62384;53.600;10.040;2023-03-01T03:38:43;76729.81;;;2.35
74043;BMP280;62384;53.600;10.040;2023-03-01T03:41:08;76491.03;;;2.38
74043;BMP280;62384;53.600;10.040;2023-03-01T03:43:36;76631.16;;;2.36
74043;BMP280;62384;53.600;10.040;2023-03-01T03:46:02;76327.28;;;2.39
74043;BMP280;62384;53.600;10.040;2023-03-01T03:48:36;76031.88;;;2.43
74043;BMP280;62384;53.600;10.040;2023-03-01T03:51:02;75797.78;;;2.45
74043;BMP280;62384;53.600;10.040;2023-03-01T03:53:30;76257.50;;;2.45
74043;BMP280;62384;53.600;10.040;2023-03-01T03:55:55;76534.88;;;2.26
74043;BMP280;62384;53.600;10.040;2023-03-01T03:58:23;76654.69;;;2.63
74043;BMP280;62384;53.600;10.040;2023-03-01T04:00:51;76678.34;;;2.63
74043;BMP280;62384;53.600;10.040;2023-03-01T04:03:17;77206.75;;;2.77
74043;BMP280;62384;53.600;10.040;2023-03-01T04:05:44;76184.84;;;2.64
74043;BMP280;62384;53.600;10.040;2023-03-01T04:08:09;77634.19;;;3.05
74043;BMP280;62384;53.600;10.040;2023-03-01T04:10:37;77704.38;;;3.07
74043;BMP280;62384;53.600;10.040;2023-03-01T04:13:04;78105.09;;;2.85
74043;BMP280;62384;53.600;10.040;2023-03-01T04:15:31;77124.44;;;3.10
74043;BMP280;62384;53.600;10.040;2023-03-01T04:17:58;77645.38;;;3.10
74043;BMP280;62384;53.600;10.040;2023-03-01T04:20:28;77908.81;;;3.13
74043;BMP280;62384;53.600;10.040;2023-03-01T04:23:05;77984.72;;;3.06
74043;BMP280;62384;53.600;10.040;2023-03-01T04:25:50;78246.53;;;3.11
74043;BMP280;62384;53.600;10.040;2023-03-01T04:28:39;78283.88;;;3.07
74043;BMP280;62384;53.600;10.040;2023-03-01T04:31:13;79236.44;;;3.09
74043;BMP280;62384;53.600;10.040;2023-03-01T04:33:40;79073.84;;;3.10
74043;BMP280;62384;53.600;10.040;2023-03-01T04:36:06;80462.22;;;3.23
74043;BMP280;62384;53.600;10.040;2023-03-01T04:38:35;80652.53;;;3.24
74043;BMP280;62384;53.600;10.040;2023-03-01T04:41:05;80687.66;;;3.14
74043;BMP280;62384;53.600;10.040;2023-03-01T04:43:31;81327.94;;;3.12
74043;BMP280;62384;53.600;10.040;2023-03-01T04:46:01;81394.31;;;2.78
74043;BMP280;62384;53.600;10.040;2023-03-01T04:48:28;81369.28;;;3.05
74043;BMP280;62384;53.600;10.040;2023-03-01T04:50:53;81565.84;;;3.10
74043;BMP280;62384;53.600;10.040;2023-03-01T04:53:18;81440.72;;;3.01
74043;BMP280;62384;53.600;10.040;2023-03-01T04:55:44;81395.91;;;2.92
74043;BMP280;62384;53.600;10.040;2023-03-01T04:58:09;82137.75;;;3.08
74043;BMP280;62384;53.600;10.040;2023-03-01T05:00:34;81748.69;;;3.24
74043;BMP280;62384;53.600;10.040;2023-03-01T05:03:00;82216.19;;;3.08
74043;BMP280;62384;53.600;10.040;2023-03-01T05:05:31;82250.84;;;3.12
74043;BMP280;62384;53.600;10.040;2023-03-01T05:07:59;82004.34;;;3.24
74043;BMP280;62384;53.600;10.040;2023-03-01T05:10:27;82121.06;;;3.33
74043;BMP280;62384;53.600;10.040;2023-03-01T05:12:54;82104.63;;;3.43
74043;BMP280;62384;53.600;10.040;2023-03-01T05:15:19;82275.63;;;3.39
74043;BMP280;62384;53.600;10.040;2023-03-01T05:17:47;82574.41;;;3.48
74043;BMP280;62384;53.600;10.040;2023-03-01T05:20:12;82425.81;;;3.41
74043;BMP280;62384;53.600;10.040;2023-03-01T05:22:37;82023.91;;;3.38
74043;BMP280;62384;53.600;10.040;2023-03-01T05:25:03;82404.63;;;3.19
74043;BMP280;62384;53.600;10.040;2023-03-01T05:27:29;82342.03;;;3.31
74043;BMP280;62384;53.600;10.040;2023-03-01T05:29:55;82797.81;;;3.49
74043;BMP280;62384;53.600;10.040;2023-03-01T05:32:21;83155.38;;;3.32
74043;BMP280;62384;53.600;10.040;2023-03-01T05:34:46;82984.97;;;3.39
74043;BMP280;62384;53.600;10.040;2023-03-01T05:37:12;83050.78;;;2.99
74043;BMP280;62384;53.600;10.040;2023-03-01T05:39:39;82968.78;;;3.32
74043;BMP280;62384;53.600;10.040;2023-03-01T05:42:04;83453.56;;;3.44
74043;BMP280;62384;53.600;10.040;2023-03-01T05:44:30;83343.13;;;3.51
74043;BMP280;62384;53.600;10.040;2023-03-01T05:46:55;83417.13;;;3.32
74043;BMP280;62384;53.600;10.040;2023-03-01T05:49:21;83424.81;;;3.53
74043;BMP280;62384;53.600;10.040;2023-03-01T05:51:52;83369.31;;;3.40
74043;BMP280;62384;53.600;10.040;2023-03-01T05:54:18;83279.47;;;3.44
74043;BMP280;62384;53.600;10.040;2023-03-01T05:56:44;83207.31;;;3.35
74043;BMP280;62384;53.600;10.040;2023-03-01T05:59:10;83274.28;;;3.42
74043;BMP280;62384;53.600;10.040;2023-03-01T06:01:36;83477.53;;;3.38
74043;BMP280;62384;53.600;10.040;2023-03-01T06:04:02;83341.19;;;3.35
74043;BMP280;62384;53.600;10.040;2023-03-01T06:06:27;83281.34;;;3.31
74043;BMP280;62384;53.600;10.040;2023-03-01T06:08:54;83282.63;;;3.32
74043;BMP280;62384;53.600;10.040;2023-03-01T06:11:21;83154.13;;;3.16
74043;BMP280;62384;53.600;10.040;2023-03-01T06:13:46;83007.59;;;3.06
74043;BMP280;62384;53.600;10.040;2023-03-01T06:16:13;83097.75;;;3.23
74043;BMP280;62384;53.600;10.040;2023-03-01T06:18:40;83176.84;;;3.09
74043;BMP280;62384;53.600;10.040;2023-03-01T06:21:07;83424.47;;;3.30
74043;BMP280;62384;53.600;10.040;2023-03-01T06:23:32;83495.53;;;3.17
74043;BMP280;62384;53.600;10.040;2023-03-01T06:25:58;83646.22;;;3.42
74043;BMP280;62384;53.600;10.040;2023-03-01T06:28:23;83699.63;;;3.59
74043;BMP280;62384;53.600;10.040;2023-03-01T06:30:49;83895.78;;;3.54
74043;BMP280;62384;53.600;10.040;2023-03-01T06:33:15;83641.16;;;3.36
74043;BMP280;62384;53.600;10.040;2023-03-01T06:35:40;83641.66;;;3.41
74043;BMP280;62384;53.600;10.040;2023-03-01T06:38:06;83733.03;;;3.48
74043;BMP280;62384;53.600;10.040;2023-03-01T06:40:32;83569.69;;;3.42
74043;BMP280;62384;53.600;10.040;2023-03-01T06:43:00;83364.59;;;3.43
74043;BMP280;62384;53.600;10.040;2023-03-01T06:45:26;83525.59;;;3.41
74043;BMP280;62384;53.600;10.040;2023-03-01T06:47:51;83561.78;;;3.42
74043;BMP280;62384;53.600;10.040;2023-03-01T06:50:17;83783.75;;;3.51
74043;BMP280;62384;53.600;10.040;2023-03-01T06:52:43;83499.75;;;3.60
74043;BMP280;62384;53.600;10.040;2023-03-01T06:55:15;84072.97;;;3.62
74043;BMP280;62384;53.600;10.040;2023-03-01T06:57:41;84321.41;;;3.73
74043;BMP280;62384;53.600;10.040;2023-03-01T07:00:07;84654.06;;;3.73
74043;BMP280;62384;53.600;10.040;2023-03-01T07:02:33;84655.91;;;3.80
74043;BMP280;62384;53.600;10.040;2023-03-01T07:04:58;84761.41;;;3.84
74043;BMP280;62384;53.600;10.040;2023-03-01T07:07:23;84734.19;;;3.92
74043;BMP280;62384;53.600;10.040;2023-03-01T07:09:49;85160.66;;;3.99
74043;BMP280;62384;53.600;10.040;2023-03-01T07:12:14;85202.91;;;4.01
74043;BMP280;62384;53.600;10.040;2023-03-01T07:14:40;85359.28;;;4.14
74043;BMP280;62384;53.600;10.040;2023-03-01T07:17:06;85546.16;;;4.25
74043;BMP280;62384;53.600;10.040;2023-03-01T07:19:31;85626.94;;;4.04
74043;BMP280;62384;53.600;10.040;2023-03-01T07:21:57;85667.03;;;4.31
74043;BMP280;62384;53.600;10.040;2023-03-01T07:24:22;85692.16;;;4.32
74043;BMP280;62384;53.600;10.040;2023-03-01T07:26:49;85818.41;;;4.31
74043;BMP280;62384;53.600;10.040;2023-03-01T07:29:15;85738.44;;;4.29
74043;BMP280;62384;53.600;10.040;2023-03-01T07:31:40;85646.63;;;4.21
74043;BMP280;62384;53.600;10.040;2023-03-01T07:34:06;85354.00;;;4.14
74043;BMP280;62384;53.600;10.040;2023-03-01T07:36:31;85541.59;;;4.18
74043;BMP280;62384;53.600;10.040;2023-03-01T07:38:56;85363.31;;;4.09
74043;BMP280;62384;53.600;10.040;2023-03-01T07:41:22;85323.19;;;3.96
74043;BMP280;62384;53.600;10.040;2023-03-01T07:43:48;85337.13;;;3.93
74043;BMP280;62384;53.600;10.040;2023-03-01T07:46:13;85248.00;;;3.89
74043;BMP280;62384;53.600;10.040;2023-03-01T07:48:38;85547.16;;;3.90
74043;BMP280;62384;53.600;10.040;2023-03-01T07:51:05;85198.97;;;3.98
74043;BMP280;62384;53.600;10.040;2023-03-01T07:53:31;85453.16;;;4.09
74043;BMP280;62384;53.600;10.040;2023-03-01T07:56:16;85531.97;;;3.90
74043;BMP280;62384;53.600;10.040;2023-03-01T07:58:44;86014.06;;;4.33
74043;BMP280;62384;53.600;10.040;2023-03-01T08:01:12;86061.00;;;4.33
74043;BMP280;62384;53.600;10.040;2023-03-01T08:03:38;86778.47;;;4.52
74043;BMP280;62384;53.600;10.040;2023-03-01T08:06:06;86406.78;;;4.51
74043;BMP280;62384;53.600;10.040;2023-03-01T08:08:33;86470.19;;;4.34
74043;BMP280;62384;53.600;10.040;2023-03-01T08:10:59;86515.25;;;4.53
74043;BMP280;62384;53.600;10.040;2023-03-01T08:13:25;86558.22;;;4.55
74043;BMP280;62384;53.600;10.040;2023-03-01T08:15:51;86683.97;;;4.64
74043;BMP280;62384;53.600;10.040;2023-03-01T08:18:18;87104.84;;;4.74
74043;BMP280;62384;53.600;10.040;2023-03-01T08:20:43;87328.06;;;4.85
74043;BMP280;62384;53.600;10.040;2023-03-01T08:23:08;87048.03;;;4.79
74043;BMP280;62384;53.600;10.040;2023-03-01T08:25:34;86934.19;;;4.79
74043;BMP280;62384;53.600;10.040;2023-03-01T08:27:59;86680.00;;;4.63
74043;BMP280;62384;53.600;10.040;2023-03-01T08:30:25;87069.22;;;4.81
74043;BMP280;62384;53.600;10.040;2023-03-01T08:32:51;87355.94;;;4.90
74043;BMP280;62384;53.600;10.040;2023-03-01T08:35:17;87726.38;;;5.08
74043;BMP280;62384;53.600;10.040;2023-03-01T08:37:42;88187.56;;;5.16
74043;BMP280;62384;53.600;10.040;2023-03-01T08:40:09;88472.38;;;5.34
74043;BMP280;62384;53.600;10.040;2023-03-01T08:42:36;88805.34;;;5.41
74043;BMP280;62384;53.600;10.040;2023-03-01T08:45:02;88448.88;;;5.25
74043;BMP280;62384;53.600;10.040;2023-03-01T08:47:27;88921.94;;;5.24
74043;BMP280;62384;53.600;10.040;2023-03-01T08:49:52;88924.06;;;5.43
74043;BMP280;62384;53.600;10.040;2023-03-01T08:52:19;89483.09;;;5.46
74043;BMP280;62384;53.600;10.040;2023-03-01T08:54:44;89489.50;;;5.69
74043;BMP280;62384;53.600;10.040;2023-03-01T08:57:10;89678.97;;;5.77
74043;BMP280;62384;53.600;10.040;2023-03-01T08:59:35;89748.44;;;5.74
74043;BMP280;62384;53.600;10.040;2023-03-01T09:02:03;88975.28;;;5.47
74043;BMP280;62384;53.600;10.040;2023-03-01T09:04:29;89118.59;;;5.49
74043;BMP280;62384;53.600;10.040;2023-03-01T09:06:54;89290.91;;;5.63
74043;BMP280;62384;53.600;10.040;2023-03-01T09:09:19;89676.22;;;5.75
74043;BMP280;62384;53.600;10.040;2023-03-01T09:11:45;89910.06;;;5.81
74043;BMP280;62384;53.600;10.040;2023-03-01T09:14:19;89645.25;;;5.80
74043;BMP280;62384;53.600;10.040;2023-03-01T09:16:44;90337.16;;;5.56
74043;BMP280;62384;53.600;10.040;2023-03-01T09:19:10;90693.91;;;6.03
74043;BMP280;62384;53.600;10.040;2023-03-01T09:21:37;91228.81;;;6.17
74043;BMP280;62384;53.600;10.040;2023-03-01T09:24:02;90756.69;;;5.98
74043;BMP280;62384;53.600;10.040;2023-03-01T09:26:27;90612.06;;;5.99
74043;BMP280;62384;53.600;10.040;2023-03-01T09:28:56;90997.69;;;6.17
74043;BMP280;62384;53.600;10.040;2023-03-01T09:31:23;90894.50;;;6.13
74043;BMP280;62384;53.600;10.040;2023-03-01T09:33:51;91138.81;;;6.21
74043;BMP280;62384;53.600;10.040;2023-03-01T09:36:19;91411.03;;;6.03
74043;BMP280;62384;53.600;10.040;2023-03-01T09:38:45;91041.19;;;6.12
74043;BMP280;62384;53.600;10.040;2023-03-01T09:43:51;90907.50;;;6.09
74043;BMP280;62384;53.600;10.040;2023-03-01T09:46:20;90464.19;;;6.13
74043;BMP280;62384;53.600;10.040;2023-03-01T09:49:01;91108.31;;;6.22
74043;BMP280;62384;53.600;10.040;2023-03-01T09:51:35;91182.72;;;6.22
74043;BMP280;62384;53.600;10.040;2023-03-01T09:54:05;92788.91;;;6.71
74043;BMP280;62384;53.600;10.040;2023-03-01T09:56:37;94039.16;;;6.84
74043;BMP280;62384;53.600;10.040;2023-03-01T10:01:44;99148.16;;;8.13
74043;BMP280;62384;53.600;10.040;2023-03-01T10:09:34;108848.56;;;10.15
74043;BMP280;62384;53.600;10.040;2023-03-01T10:12:02;112117.91;;;11.12
74043;BMP280;62384;53.600;10.040;2023-03-01T10:14:38;112870.97;;;11.47
74043;BMP280;62384;53.600;10.040;2023-03-01T10:17:10;113634.75;;;11.89
74043;BMP280;62384;53.600;10.040;2023-03-01T10:19:43;112275.13;;;12.02
74043;BMP280;62384;53.600;10.040;2023-03-01T10:24:43;114818.34;;;12.71
74043;BMP280;62384;53.600;10.040;2023-03-01T10:27:24;114497.75;;;12.85
74043;BMP280;62384;53.600;10.040;2023-03-01T10:30:07;112348.50;;;12.45
74043;BMP280;62384;53.600;10.040;2023-03-01T10:32:36;113043.31;;;12.46
74043;BMP280;62384;53.600;10.040;2023-03-01T10:35:24;111645.19;;;12.38
74043;BMP280;62384;53.600;10.040;2023-03-01T10:38:11;112044.25;;;12.69
74043;BMP280;62384;53.600;10.040;2023-03-01T10:40:59;108751.53;;;11.62
74043;BMP280;62384;53.600;10.040;2023-03-01T10:43:30;111294.94;;;12.36
74043;BMP280;62384;53.600;10.040;2023-03-01T10:45:57;109117.94;;;11.75
74043;BMP280;62384;53.600;10.040;2023-03-01T10:48:26;111633.91;;;12.32
74043;BMP280;62384;53.600;10.040;2023-03-01T10:53:36;111654.75;;;12.44
74043;BMP280;62384;53.600;10.040;2023-03-01T10:56:05;111608.75;;;12.17
74043;BMP280;62384;53.600;10.040;2023-03-01T10:58:33;110510.53;;;11.81
74043;BMP280;62384;53.600;10.040;2023-03-01T11:01:01;114154.75;;;12.87
74043;BMP280;62384;53.600;10.040;2023-03-01T11:03:35;114849.63;;;12.88
74043;BMP280;62384;53.600;10.040;2023-03-01T11:08:44;117044.81;;;13.52
74043;BMP280;62384;53.600;10.040;2023-03-01T11:11:29;120381.56;;;14.65
74043;BMP280;62384;53.600;10.040;2023-03-01T11:14:07;117847.63;;;14.11
74043;BMP280;62384;53.600;10.040;2023-03-01T11:16:35;116044.97;;;13.75
74043;BMP280;62384;53.600;10.040;2023-03-01T11:19:14;115984.41;;;13.41
74043;BMP280;62384;53.600;10.040;2023-03-01T11:21:47;118559.59;;;14.20
74043;BMP280;62384;53.600;10.040;2023-03-01T11:24:15;120408.75;;;14.79
74043;BMP280;62384;53.600;10.040;2023-03-01T11:26:47;120842.81;;;15.25
74043;BMP280;62384;53.600;10.040;2023-03-01T11:29:29;123091.72;;;16.07
74043;BMP280;62384;53.600;10.040;2023-03-01T11:31:59;121976.31;;;15.71
74043;BMP280;62384;53.600;10.040;2023-03-01T11:37:16;116155.13;;;14.36
74043;BMP280;62384;53.600;10.040;2023-03-01T11:39:53;113576.59;;;13.53
74043;BMP280;62384;53.600;10.040;2023-03-01T11:42:31;114663.56;;;13.79
74043;BMP280;62384;53.600;10.040;2023-03-01T11:45:08;116100.06;;;14.06
74043;BMP280;62384;53.600;10.040;2023-03-01T11:50:42;115043.72;;;13.98
74043;BMP280;62384;53.600;10.040;2023-03-01T11:56:03;118315.97;;;14.77
74043;BMP280;62384;53.600;10.040;2023-03-01T12:02:10;119803.63;;;15.28
74043;BMP280;62384;53.600;10.040;2023-03-01T12:04:58;123132.00;;;16.28
74043;BMP280;62384;53.600;10.040;2023-03-01T12:07:44;120961.47;;;15.88
74043;BMP280;62384;53.600;10.040;2023-03-01T12:10:22;118048.75;;;15.21
74043;BMP280;62384;53.600;10.040;2023-03-01T12:15:42;115834.63;;;14.52
74043;BMP280;62384;53.600;10.040;2023-03-01T12:32:00;116878.59;;;14.52
74043;BMP280;62384;53.600;10.040;2023-03-01T12:34:52;117279.28;;;14.81
74043;BMP280;62384;53.600;10.040;2023-03-01T12:42:59;117634.56;;;14.85
74043;BMP280;62384;53.600;10.040;2023-03-01T12:51:18;118700.06;;;14.97
74043;BMP280;62384;53.600;10.040;2023-03-01T12:53:50;117615.34;;;14.75
74043;BMP280;62384;53.600;10.040;2023-03-01T12:56:19;116130.75;;;14.23
74043;BMP280;62384;53.600;10.040;2023-03-01T12:59:01;117213.56;;;14.45
74043;BMP280;62384;53.600;10.040;2023-03-01T13:01:53;122002.94;;;15.85
74043;BMP280;62384;53.600;10.040;2023-03-01T13:04:45;119493.31;;;15.49
74043;BMP280;62384;53.600;10.040;2023-03-01T13:07:34;122773.00;;;16.23
74043;BMP280;62384;53.600;10.040;2023-03-01T13:10:05;122396.91;;;16.09
74043;BMP280;62384;53.600;10.040;2023-03-01T13:12:51;120621.00;;;15.93
74043;BMP280;62384;53.600;10.040;2023-03-01T13:18:01;118765.69;;;15.32
74043;BMP280;62384;53.600;10.040;2023-03-01T13:25:30;117617.16;;;14.76
74043;BMP280;62384;53.600;10.040;2023-03-01T13:31:55;117615.34;;;14.75
74043;BMP280;62384;53.600;10.040;2023-03-01T13:33:56;114733.97;;;14.19
74043;BMP280;62384;53.600;10.040;2023-03-01T13:39:26;115441.25;;;14.26
74043;BMP280;62384;53.600;10.040;2023-03-01T13:41:54;116147.94;;;14.32
74043;BMP280;62384;53.600;10.040;2023-03-01T13:44:46;112566.06;;;13.70
74043;BMP280;62384;53.600;10.040;2023-03-01T13:49:55;109975.78;;;12.73
74043;BMP280;62384;53.600;10.040;2023-03-01T13:52:34;109600.09;;;12.56
74043;BMP280;62384;53.600;10.040;2023-03-01T13:55:00;108868.25;;;12.38
74043;BMP280;62384;53.600;10.040;2023-03-01T13:57:34;108895.94;;;12.48
74043;BMP280;62384;53.600;10.040;2023-03-01T13:59:59;109611.16;;;12.62
74043;BMP280;62384;53.600;10.040;2023-03-01T14:02:31;109623.06;;;12.69
74043;BMP280;62384;53.600;10.040;2023-03-01T14:05:00;111729.38;;;12.87
74043;BMP280;62384;53.600;10.040;2023-03-01T14:07:27;111764.94;;;13.08
74043;BMP280;62384;53.600;10.040;2023-03-01T14:10:03;112888.34;;;13.56
74043;BMP280;62384;53.600;10.040;2023-03-01T14:21:29;111808.38;;;13.33
74043;BMP280;62384;53.600;10.040;2023-03-01T14:23:54;112865.56;;;13.43
74043;BMP280;62384;53.600;10.040;2023-03-01T14:26:21;115083.97;;;14.20
74043;BMP280;62384;53.600;10.040;2023-03-01T14:28:47;112232.41;;;13.78
74043;BMP280;62384;53.600;10.040;2023-03-01T14:31:38;108501.50;;;13.26
74043;BMP280;62384;53.600;10.040;2023-03-01T14:34:05;107839.63;;;12.95
74043;BMP280;62384;53.600;10.040;2023-03-01T14:36:33;107889.03;;;12.89
74043;BMP280;62384;53.600;10.040;2023-03-01T14:39:00;103794.31;;;12.08
74043;BMP280;62384;53.600;10.040;2023-03-01T14:41:33;105007.22;;;12.16
74043;BMP280;62384;53.600;10.040;2023-03-01T14:44:23;103140.34;;;12.05
74043;BMP280;62384;53.600;10.040;2023-03-01T14:47:04;101643.19;;;11.41
74043;BMP280;62384;53.600;10.040;2023-03-01T14:49:30;99334.41;;;10.53
74043;BMP280;62384;53.600;10.040;2023-03-01T14:52:04;99007.03;;;10.60
74043;BMP280;62384;53.600;10.040;2023-03-01T14:54:40;98763.50;;;10.74
74043;BMP280;62384;53.600;10.040;2023-03-01T14:57:14;99060.03;;;10.42
74043;BMP280;62384;53.600;10.040;2023-03-01T14:59:41;98941.44;;;10.10
74043;BMP280;62384;53.600;10.040;2023-03-01T15:02:17;97455.94;;;10.05
74043;BMP280;62384;53.600;10.040;2023-03-01T15:04:51;96932.41;;;10.25
74043;BMP280;62384;53.600;10.040;2023-03-01T15:07:17;96995.72;;;10.40
74043;BMP280;62384;53.600;10.040;2023-03-01T15:09:43;97107.56;;;10.40
74043;BMP280;62384;53.600;10.040;2023-03-01T15:12:35;96736.78;;;10.34
74043;BMP280;62384;53.600;10.040;2023-03-01T15:15:01;96528.41;;;10.11
74043;BMP280;62384;53.600;10.040;2023-03-01T15:17:51;96856.31;;;10.22
74043;BMP280;62384;53.600;10.040;2023-03-01T15:20:19;95934.81;;;9.98
74043;BMP280;62384;53.600;10.040;2023-03-01T15:22:47;96027.44;;;10.20
74043;BMP280;62384;53.600;10.040;2023-03-01T15:25:21;96759.94;;;9.91
74043;BMP280;62384;53.600;10.040;2023-03-01T15:27:50;96207.59;;;10.29
74043;BMP280;62384;53.600;10.040;2023-03-01T15:30:26;96138.34;;;10.13
74043;BMP280;62384;53.600;10.040;2023-03-01T15:33:31;95457.38;;;10.13
74043;BMP280;62384;53.600;10.040;2023-03-01T15:35:58;95432.06;;;10.14
74043;BMP280;62384;53.600;10.040;2023-03-01T15:38:49;94831.09;;;9.98
74043;BMP280;62384;53.600;10.040;2023-03-01T15:41:45;94774.91;;;9.98
74043;BMP280;62384;53.600;10.040;2023-03-01T15:44:17;94438.03;;;9.83